Time;durP1;ratioP1;P1;durP2;ratioP2;P2;SDS_P1;SDS_P2;PMS_P1;PMS_P2;Temp;Humidity;BMP_temperature;BMP_pressure;BME280_temperature;BME280_humidity;BME280_pressure;Samples;Min_cycle;Max_cycle;Signal;HPM_P1;HPM_P2
2024/01/20 00:00:28;;;;;;;15.00;7.22;;;-1.30;99.90;;;;;;4963184;28;20064;-80
2024/01/20 00:02:54;;;;;;;18.70;8.68;;;-1.40;99.90;;;;;;4948871;28;20049;-80
2024/01/20 00:05:19;;;;;;;22.52;7.93;;;-1.40;99.90;;;;;;4963640;28;20034;-80
2024/01/20 00:07:45;;;;;;;7.88;4.03;;;-1.40;99.90;;;;;;4950168;28;20415;-80
2024/01/20 00:10:11;;;;;;;17.48;7.65;;;-1.40;99.90;;;;;;4965672;28;20070;-80
2024/01/20 00:12:40;;;;;;;13.98;6.70;;;-1.40;99.90;;;;;;4947448;28;20084;-80
2024/01/20 00:15:07;;;;;;;10.73;5.45;;;-1.40;99.90;;;;;;4964014;28;20516;-80
2024/01/20 00:17:33;;;;;;;17.27;7.38;;;-1.40;99.90;;;;;;4961058;28;20128;-80
2024/01/20 00:19:58;;;;;;;7.10;3.75;;;-1.40;99.90;;;;;;4965535;28;20512;-80
2024/01/20 00:22:24;;;;;;;21.42;7.40;;;-1.50;99.90;;;;;;4949699;28;20116;-80
2024/01/20 00:24:50;;;;;;;18.15;7.50;;;-1.50;99.90;;;;;;4963878;28;20038;-80
2024/01/20 00:27:15;;;;;;;9.30;5.45;;;-1.50;99.90;;;;;;4948941;28;20401;-80
2024/01/20 00:29:41;;;;;;;20.05;8.52;;;-1.50;99.90;;;;;;4950118;28;20121;-79
2024/01/20 00:32:06;;;;;;;12.82;7.13;;;-1.60;99.90;;;;;;4958671;28;20041;-79
2024/01/20 00:34:32;;;;;;;14.43;5.82;;;-1.60;99.90;;;;;;4961909;28;20037;-80
2024/01/20 00:37:00;;;;;;;8.00;4.32;;;-1.50;99.90;;;;;;4963004;28;20041;-80
2024/01/20 00:39:25;;;;;;;13.95;7.65;;;-1.50;99.90;;;;;;4947864;28;20751;-80
2024/01/20 00:41:51;;;;;;;13.68;6.22;;;-1.50;99.90;;;;;;4948865;28;20026;-80
2024/01/20 00:44:17;;;;;;;22.15;7.50;;;-1.50;99.90;;;;;;4950069;28;20551;-80
2024/01/20 00:46:42;;;;;;;20.38;9.02;;;-1.60;99.90;;;;;;4962080;28;20463;-80
2024/01/20 00:49:08;;;;;;;20.33;9.65;;;-1.70;99.90;;;;;;4959611;28;20034;-80
2024/01/20 00:51:33;;;;;;;18.63;9.63;;;-1.70;99.90;;;;;;4963563;28;20033;-80
2024/01/20 00:53:59;;;;;;;15.38;7.07;;;-1.60;99.90;;;;;;4945483;28;20483;-80
2024/01/20 00:56:24;;;;;;;20.35;9.10;;;-1.70;99.90;;;;;;4962848;28;20018;-80
2024/01/20 00:58:50;;;;;;;23.52;11.02;;;-1.60;99.90;;;;;;4959963;28;20034;-81
2024/01/20 01:01:16;;;;;;;12.20;6.60;;;-1.70;99.90;;;;;;4962589;28;20038;-80
2024/01/20 01:03:42;;;;;;;10.70;6.10;;;-1.60;99.90;;;;;;4961349;28;20030;-80
2024/01/20 01:06:08;;;;;;;24.85;8.77;;;-1.60;99.90;;;;;;4962317;28;20722;-80
2024/01/20 01:08:34;;;;;;;16.25;7.88;;;-1.70;99.90;;;;;;4961225;28;20034;-81
2024/01/20 01:11:00;;;;;;;21.63;9.50;;;-1.60;99.90;;;;;;4959727;28;20042;-80
2024/01/20 01:13:26;;;;;;;18.88;10.60;;;-1.70;99.90;;;;;;4950938;28;20034;-80
2024/01/20 01:15:51;;;;;;;22.30;11.50;;;-1.70;99.90;;;;;;4963786;28;20121;-80
2024/01/20 01:18:17;;;;;;;16.33;7.85;;;-1.70;99.90;;;;;;4949428;28;20511;-81
2024/01/20 01:20:42;;;;;;;11.60;6.43;;;-1.70;99.90;;;;;;4963290;28;20526;-81
2024/01/20 01:23:08;;;;;;;26.08;8.02;;;-1.70;99.90;;;;;;4957701;28;20408;-81
2024/01/20 01:25:33;;;;;;;13.00;5.78;;;-1.70;99.90;;;;;;4960997;28;20057;-81
2024/01/20 01:27:59;;;;;;;18.00;7.63;;;-1.70;99.90;;;;;;4963571;28;20120;-81
2024/01/20 01:30:25;;;;;;;14.50;7.57;;;-1.70;99.90;;;;;;4949414;28;20046;-81
2024/01/20 01:32:50;;;;;;;8.30;3.80;;;-1.80;99.90;;;;;;4961291;28;20556;-81
2024/01/20 01:35:16;;;;;;;25.77;11.57;;;-1.80;99.90;;;;;;4954625;28;20034;-80
2024/01/20 01:37:41;;;;;;;18.42;7.57;;;-1.80;99.90;;;;;;4954282;28;20081;-81
2024/01/20 01:40:07;;;;;;;18.10;7.88;;;-1.80;99.90;;;;;;4980970;28;20502;-80
2024/01/20 01:42:33;;;;;;;14.95;7.65;;;-1.80;99.90;;;;;;4954191;28;20037;-80
2024/01/20 01:44:59;;;;;;;17.50;9.70;;;-1.90;99.90;;;;;;4966896;28;20407;-80
2024/01/20 01:47:25;;;;;;;19.15;7.53;;;-2.00;99.90;;;;;;4967425;28;20033;-80
2024/01/20 01:49:50;;;;;;;14.30;4.72;;;-1.90;99.90;;;;;;4967516;28;20045;-81
2024/01/20 01:52:16;;;;;;;17.20;5.55;;;-1.80;99.90;;;;;;4967813;28;20061;-80
2024/01/20 01:54:41;;;;;;;16.23;7.18;;;-1.90;99.90;;;;;;4968901;28;20030;-81
2024/01/20 01:57:07;;;;;;;11.38;6.30;;;-2.00;99.90;;;;;;4965357;28;20042;-81
2024/01/20 01:59:34;;;;;;;10.68;6.60;;;-2.00;99.90;;;;;;4951616;28;20071;-81
2024/01/20 02:02:00;;;;;;;15.48;8.13;;;-2.00;99.90;;;;;;4963265;28;20045;-81
2024/01/20 02:04:26;;;;;;;12.93;5.47;;;-2.00;99.90;;;;;;4979820;28;20034;-80
2024/01/20 02:06:51;;;;;;;14.77;8.18;;;-2.00;99.90;;;;;;4963761;28;20057;-80
2024/01/20 02:09:17;;;;;;;13.82;6.22;;;-2.00;99.90;;;;;;4954282;28;20029;-80
2024/01/20 02:11:42;;;;;;;17.40;8.30;;;-2.00;99.90;;;;;;4975261;28;20072;-79
2024/01/20 02:14:08;;;;;;;20.98;7.85;;;-2.00;99.90;;;;;;4948044;28;20030;-80
2024/01/20 02:16:34;;;;;;;17.50;8.32;;;-2.10;99.90;;;;;;4947530;28;20031;-80
2024/01/20 02:19:05;;;;;;;20.40;9.00;;;-2.00;99.90;;;;;;4952995;28;20100;-80
2024/01/20 02:21:32;;;;;;;9.80;4.68;;;-2.10;99.90;;;;;;4948202;28;20050;-81
2024/01/20 02:23:58;;;;;;;10.73;5.32;;;-2.20;99.90;;;;;;4962858;28;20022;-81
2024/01/20 02:26:27;;;;;;;12.27;6.80;;;-2.20;99.90;;;;;;4976556;28;20088;-81
2024/01/20 02:28:52;;;;;;;9.68;5.13;;;-2.20;99.90;;;;;;4963914;28;20096;-81
2024/01/20 02:31:18;;;;;;;18.00;7.95;;;-2.20;99.90;;;;;;4967309;28;20060;-80
2024/01/20 02:33:43;;;;;;;9.93;5.97;;;-2.20;99.90;;;;;;4954954;28;20026;-81
2024/01/20 02:36:09;;;;;;;12.68;6.50;;;-2.20;99.90;;;;;;4963663;28;20065;-81
2024/01/20 02:38:34;;;;;;;10.98;6.13;;;-2.20;99.90;;;;;;4954067;28;20034;-80
2024/01/20 02:41:00;;;;;;;10.57;4.13;;;-2.30;99.90;;;;;;4967647;28;20041;-81
2024/01/20 02:43:25;;;;;;;22.08;9.32;;;-2.30;99.90;;;;;;4964274;28;20039;-81
2024/01/20 02:45:51;;;;;;;8.15;4.85;;;-2.20;99.90;;;;;;4964685;28;20035;-81
2024/01/20 02:48:16;;;;;;;16.08;7.68;;;-2.30;99.90;;;;;;4963124;28;20088;-81
2024/01/20 02:50:42;;;;;;;11.43;5.03;;;-2.20;99.90;;;;;;4952097;28;20048;-81
2024/01/20 02:53:07;;;;;;;5.15;3.05;;;-2.20;99.90;;;;;;4952043;28;20041;-81
2024/01/20 02:55:33;;;;;;;10.45;5.60;;;-2.30;99.90;;;;;;4950304;28;20383;-80
2024/01/20 02:57:59;;;;;;;14.13;6.72;;;-2.30;99.90;;;;;;4964941;28;20061;-81
2024/01/20 03:00:24;;;;;;;9.05;5.15;;;-2.30;99.90;;;;;;4963087;28;20040;-80
2024/01/20 03:02:50;;;;;;;18.50;8.68;;;-2.30;99.90;;;;;;4984120;28;20034;-80
2024/01/20 03:05:15;;;;;;;21.02;8.90;;;-2.30;99.90;;;;;;4964706;28;20034;-81
2024/01/20 03:07:41;;;;;;;9.27;4.30;;;-2.30;99.90;;;;;;4963754;28;20026;-81
2024/01/20 03:10:07;;;;;;;9.40;4.97;;;-2.40;99.90;;;;;;4950674;28;20561;-80
2024/01/20 03:12:33;;;;;;;9.68;4.63;;;-2.40;99.90;;;;;;4963704;28;20073;-81
2024/01/20 03:14:59;;;;;;;12.10;5.95;;;-2.40;99.90;;;;;;4962659;28;20026;-80
2024/01/20 03:17:24;;;;;;;15.75;7.78;;;-2.40;99.90;;;;;;4960853;28;20049;-80
2024/01/20 03:19:50;;;;;;;15.05;6.78;;;-2.40;99.90;;;;;;4964827;28;20116;-81
2024/01/20 03:22:15;;;;;;;17.30;8.82;;;-2.30;99.90;;;;;;4966573;28;20056;-80
2024/01/20 03:24:41;;;;;;;15.77;5.47;;;-2.40;99.90;;;;;;4969873;28;20029;-80
2024/01/20 03:27:06;;;;;;;18.27;8.05;;;-2.40;99.90;;;;;;4963089;28;20034;-81
2024/01/20 03:29:32;;;;;;;16.67;6.53;;;-2.40;99.90;;;;;;4964410;28;20476;-80
2024/01/20 03:31:58;;;;;;;23.05;10.13;;;-2.40;99.90;;;;;;4965339;28;20059;-79
2024/01/20 03:34:23;;;;;;;15.15;7.35;;;-2.50;99.90;;;;;;4949122;28;20087;-80
2024/01/20 03:36:49;;;;;;;10.77;6.15;;;-2.50;99.90;;;;;;4951350;28;20037;-81
2024/01/20 03:39:14;;;;;;;8.13;4.43;;;-2.60;99.90;;;;;;4950739;28;20125;-80
2024/01/20 03:41:40;;;;;;;13.80;4.55;;;-2.50;99.90;;;;;;4952413;28;20037;-81
2024/01/20 03:44:05;;;;;;;22.02;10.68;;;-2.60;99.90;;;;;;4948783;28;20404;-81
2024/01/20 03:46:31;;;;;;;13.85;6.63;;;-2.50;99.90;;;;;;4949878;28;20037;-81
2024/01/20 03:48:57;;;;;;;18.02;4.35;;;-2.60;99.90;;;;;;4961278;28;20037;-81
2024/01/20 03:51:26;;;;;;;15.23;6.72;;;-2.70;99.90;;;;;;4949402;28;20497;-80
2024/01/20 03:53:52;;;;;;;16.35;7.82;;;-2.60;99.90;;;;;;4959970;28;20026;-80
2024/01/20 03:56:18;;;;;;;22.27;10.63;;;-2.60;99.90;;;;;;4950748;28;20165;-81
2024/01/20 03:58:44;;;;;;;5.00;2.55;;;-2.70;99.90;;;;;;4959534;28;20125;-78
2024/01/20 04:01:09;;;;;;;19.48;9.68;;;-2.70;99.90;;;;;;4954153;28;20026;-81
2024/01/20 04:03:35;;;;;;;24.45;11.70;;;-2.70;99.90;;;;;;4965105;28;20018;-81
2024/01/20 04:06:03;;;;;;;15.15;6.60;;;-2.80;99.90;;;;;;4964495;28;20389;-81
2024/01/20 04:08:28;;;;;;;23.90;9.85;;;-2.90;99.90;;;;;;4960981;28;20030;-81
2024/01/20 04:10:54;;;;;;;21.90;9.43;;;-3.00;99.90;;;;;;4950508;28;20030;-81
2024/01/20 04:13:19;;;;;;;10.80;5.95;;;-2.90;99.90;;;;;;4965226;28;20038;-81
2024/01/20 04:15:45;;;;;;;24.95;10.93;;;-2.90;99.90;;;;;;4976369;28;20392;-81
2024/01/20 04:18:11;;;;;;;23.63;12.07;;;-3.00;99.90;;;;;;4963494;28;20088;-79
2024/01/20 04:20:36;;;;;;;20.10;8.40;;;-3.00;99.90;;;;;;4949058;28;20033;-79
2024/01/20 04:23:02;;;;;;;11.18;5.75;;;-3.10;99.90;;;;;;4949135;28;20057;-78
2024/01/20 04:25:27;;;;;;;20.55;6.63;;;-3.10;99.90;;;;;;4958805;28;20062;-78
2024/01/20 04:27:53;;;;;;;20.30;10.43;;;-3.10;99.90;;;;;;4947935;28;20034;-80
2024/01/20 04:30:25;;;;;;;21.70;10.15;;;-3.20;99.90;;;;;;5012516;28;20427;-79
2024/01/20 04:32:51;;;;;;;29.13;12.00;;;-3.20;99.90;;;;;;4999397;28;20529;-80
2024/01/20 04:35:16;;;;;;;13.63;7.53;;;-3.00;99.90;;;;;;4985371;28;20037;-80
2024/01/20 04:37:43;;;;;;;15.52;7.63;;;-3.10;99.90;;;;;;4945078;28;20041;-80
2024/01/20 04:40:09;;;;;;;17.45;9.27;;;-3.00;99.90;;;;;;4982476;28;21253;-78
2024/01/20 04:42:35;;;;;;;20.60;8.23;;;-3.20;99.90;;;;;;4987533;28;20042;-79
2024/01/20 04:45:03;;;;;;;16.92;9.32;;;-3.20;99.90;;;;;;4968150;28;20053;-80
2024/01/20 04:47:29;;;;;;;21.77;9.07;;;-3.20;99.90;;;;;;4974758;28;20053;-79
2024/01/20 04:49:54;;;;;;;21.95;9.05;;;-3.20;99.90;;;;;;4983862;28;20038;-79
2024/01/20 04:52:20;;;;;;;14.40;5.45;;;-3.30;99.90;;;;;;4964613;28;20034;-79
2024/01/20 04:54:45;;;;;;;24.10;9.65;;;-3.30;99.90;;;;;;4977315;28;20030;-80
2024/01/20 04:57:11;;;;;;;20.73;10.07;;;-3.30;99.90;;;;;;4977616;28;20057;-79
2024/01/20 04:59:36;;;;;;;14.80;7.18;;;-3.30;99.90;;;;;;4950501;28;20050;-79
2024/01/20 05:02:02;;;;;;;16.95;7.40;;;-3.20;99.90;;;;;;4979812;28;20110;-78
2024/01/20 05:04:27;;;;;;;15.13;5.75;;;-3.20;99.90;;;;;;4958013;28;20092;-79
2024/01/20 05:06:53;;;;;;;18.55;9.65;;;-3.10;99.90;;;;;;4957990;28;20176;-79
2024/01/20 05:09:19;;;;;;;13.55;6.68;;;-3.30;99.90;;;;;;4978513;28;20113;-79
2024/01/20 05:11:44;;;;;;;18.92;7.43;;;-3.20;99.90;;;;;;4998512;28;20038;-79
2024/01/20 05:14:12;;;;;;;22.55;8.80;;;-3.20;99.90;;;;;;4983631;28;20037;-79
2024/01/20 05:16:37;;;;;;;14.52;6.40;;;-3.20;99.90;;;;;;4982573;28;20148;-79
2024/01/20 05:19:03;;;;;;;13.52;6.60;;;-3.20;99.90;;;;;;4982120;28;20062;-79
2024/01/20 05:21:28;;;;;;;15.48;6.75;;;-3.20;99.90;;;;;;4985759;28;20168;-79
2024/01/20 05:23:54;;;;;;;7.43;4.57;;;-3.20;99.90;;;;;;4987367;28;20038;-79
2024/01/20 05:26:20;;;;;;;15.02;4.57;;;-3.20;99.90;;;;;;4979334;28;20112;-80
2024/01/20 05:28:45;;;;;;;23.42;10.50;;;-3.40;99.90;;;;;;4965380;28;20394;-80
2024/01/20 05:31:11;;;;;;;13.20;6.55;;;-3.30;99.90;;;;;;4984264;28;20144;-80
2024/01/20 05:33:36;;;;;;;19.80;7.72;;;-3.40;99.90;;;;;;4982383;28;20037;-79
2024/01/20 05:36:02;;;;;;;25.00;11.65;;;-3.40;99.90;;;;;;4983731;28;20038;-80
2024/01/20 05:38:28;;;;;;;19.98;8.48;;;-3.40;99.90;;;;;;4984903;28;20041;-79
2024/01/20 05:40:53;;;;;;;11.80;5.43;;;-3.30;99.90;;;;;;4982475;28;20036;-79
2024/01/20 05:43:19;;;;;;;16.20;7.63;;;-3.30;99.90;;;;;;4998083;28;20034;-79
2024/01/20 05:45:45;;;;;;;12.48;6.43;;;-3.40;99.90;;;;;;4985931;28;20124;-80
2024/01/20 05:48:10;;;;;;;4.78;2.28;;;-3.40;99.90;;;;;;4969398;28;20056;-80
2024/01/20 05:50:36;;;;;;;18.60;7.75;;;-3.40;99.90;;;;;;4968493;28;20093;-79
2024/01/20 05:53:01;;;;;;;9.63;4.57;;;-3.50;99.90;;;;;;4985200;28;20506;-79
2024/01/20 05:55:27;;;;;;;12.52;5.00;;;-3.30;99.90;;;;;;4970219;28;20035;-79
2024/01/20 05:57:53;;;;;;;11.60;5.88;;;-3.30;99.90;;;;;;4966649;28;20033;-78
2024/01/20 06:00:20;;;;;;;16.83;7.07;;;-3.30;99.90;;;;;;4968662;28;20118;-80
2024/01/20 06:02:46;;;;;;;17.13;8.73;;;-3.20;99.90;;;;;;4974873;28;20037;-78
2024/01/20 06:05:11;;;;;;;18.10;8.00;;;-3.30;99.90;;;;;;4980810;28;20592;-78
2024/01/20 06:07:37;;;;;;;14.57;6.55;;;-3.40;99.90;;;;;;4982695;28;20130;-79
2024/01/20 06:10:03;;;;;;;19.75;8.60;;;-3.20;99.90;;;;;;4967767;28;20076;-79
2024/01/20 06:12:28;;;;;;;22.33;8.85;;;-3.30;99.90;;;;;;4965410;28;20035;-79
2024/01/20 06:14:54;;;;;;;16.67;6.85;;;-3.40;99.90;;;;;;4929738;28;20105;-79
2024/01/20 06:17:19;;;;;;;11.80;5.80;;;-3.30;99.90;;;;;;4967253;28;20038;-79
2024/01/20 06:19:45;;;;;;;10.73;4.38;;;-3.30;99.90;;;;;;4969832;28;20093;-79
2024/01/20 06:22:11;;;;;;;13.93;6.03;;;-3.30;99.90;;;;;;4982662;28;20030;-79
2024/01/20 06:24:36;;;;;;;14.25;6.15;;;-3.20;99.90;;;;;;4968586;28;20129;-79
2024/01/20 06:27:02;;;;;;;12.80;6.55;;;-3.20;99.90;;;;;;4968754;28;20370;-78
2024/01/20 06:29:27;;;;;;;19.35;7.03;;;-3.20;99.90;;;;;;4966913;28;20039;-79
2024/01/20 06:31:53;;;;;;;14.20;5.38;;;-3.40;99.90;;;;;;4970456;28;20062;-79
2024/01/20 06:34:19;;;;;;;4.88;2.70;;;-3.40;99.90;;;;;;4985704;28;20041;-79
2024/01/20 06:36:44;;;;;;;18.85;8.52;;;-3.30;99.90;;;;;;4970810;28;20492;-79
2024/01/20 06:39:10;;;;;;;15.40;7.55;;;-3.30;99.90;;;;;;4980924;28;20038;-78
2024/01/20 06:41:36;;;;;;;18.15;7.10;;;-3.30;99.90;;;;;;4982186;28;20026;-78
2024/01/20 06:44:01;;;;;;;17.38;7.75;;;-3.30;99.90;;;;;;4966046;28;20030;-79
2024/01/20 06:46:27;;;;;;;16.55;8.68;;;-3.30;99.90;;;;;;4968005;28;20038;-79
2024/01/20 06:48:52;;;;;;;9.20;4.78;;;-3.30;99.90;;;;;;4967947;28;20506;-79
2024/01/20 06:51:22;;;;;;;20.35;4.50;;;-3.20;99.90;;;;;;4968368;28;20050;-79
2024/01/20 06:53:52;;;;;;;11.30;5.65;;;-3.30;99.90;;;;;;4983214;28;20037;-79
2024/01/20 06:56:20;;;;;;;13.48;6.10;;;-3.30;99.90;;;;;;4983342;28;20034;-79
2024/01/20 06:58:46;;;;;;;18.50;5.43;;;-3.20;99.90;;;;;;4998398;28;20817;-79
2024/01/20 07:01:11;;;;;;;8.35;3.55;;;-3.30;99.90;;;;;;4961913;28;20031;-79
2024/01/20 07:03:37;;;;;;;15.02;6.65;;;-3.20;99.90;;;;;;4966973;28;20070;-79
2024/01/20 07:06:03;;;;;;;9.90;5.93;;;-3.30;99.90;;;;;;4982881;28;20041;-79
2024/01/20 07:08:28;;;;;;;18.90;9.38;;;-3.20;99.90;;;;;;4965735;28;20095;-79
2024/01/20 07:10:54;;;;;;;21.08;8.90;;;-3.40;99.90;;;;;;4937673;28;20443;-79
2024/01/20 07:13:20;;;;;;;9.80;5.75;;;-3.30;99.90;;;;;;4969753;28;20038;-79
2024/01/20 07:15:45;;;;;;;17.55;8.20;;;-3.40;99.90;;;;;;4966990;28;20038;-80
2024/01/20 07:18:11;;;;;;;16.00;6.68;;;-3.50;99.90;;;;;;4965473;28;20042;-79
2024/01/20 07:20:37;;;;;;;13.18;7.05;;;-3.40;99.90;;;;;;4982966;28;20090;-79
2024/01/20 07:23:02;;;;;;;16.98;6.90;;;-3.30;99.90;;;;;;4984654;28;20798;-79
2024/01/20 07:25:28;;;;;;;18.30;7.70;;;-3.30;99.90;;;;;;4969268;28;20049;-79
2024/01/20 07:27:54;;;;;;;18.80;8.73;;;-3.40;99.90;;;;;;4966278;28;20054;-80
2024/01/20 07:30:20;;;;;;;10.52;5.63;;;-3.30;99.90;;;;;;4983036;28;20506;-80
2024/01/20 07:32:45;;;;;;;11.57;5.82;;;-3.30;99.90;;;;;;4967687;28;20041;-80
2024/01/20 07:35:11;;;;;;;8.25;3.97;;;-3.40;99.90;;;;;;4967253;28;20031;-80
2024/01/20 07:37:37;;;;;;;13.48;6.93;;;-3.40;99.90;;;;;;4972838;28;20494;-79
2024/01/20 07:40:04;;;;;;;16.67;7.82;;;-3.40;99.90;;;;;;4970603;28;20140;-79
2024/01/20 07:42:32;;;;;;;9.63;5.10;;;-3.40;99.90;;;;;;4972009;28;20389;-80
2024/01/20 07:44:59;;;;;;;16.33;6.97;;;-3.40;99.90;;;;;;4986356;28;20038;-80
2024/01/20 07:47:25;;;;;;;15.35;5.38;;;-3.40;99.90;;;;;;4989388;28;20031;-79
2024/01/20 07:49:51;;;;;;;14.57;6.90;;;-3.30;99.90;;;;;;4974385;28;20118;-80
2024/01/20 07:52:17;;;;;;;14.18;7.28;;;-3.50;99.90;;;;;;4990533;28;20105;-80
2024/01/20 07:54:42;;;;;;;7.15;4.35;;;-3.20;99.90;;;;;;4986543;28;20113;-79
2024/01/20 07:57:08;;;;;;;12.55;6.82;;;-3.20;99.90;;;;;;4970811;28;20038;-80
2024/01/20 07:59:33;;;;;;;14.95;6.45;;;-3.40;99.90;;;;;;4969140;28;20657;-80
2024/01/20 08:02:00;;;;;;;15.88;6.35;;;-3.30;99.90;;;;;;4974618;28;20042;-79
2024/01/20 08:04:28;;;;;;;7.47;3.72;;;-3.10;99.90;;;;;;4972306;28;20137;-80
2024/01/20 08:06:54;;;;;;;9.48;4.80;;;-2.90;99.90;;;;;;4977963;28;20505;-80
2024/01/20 08:09:20;;;;;;;11.55;5.57;;;-3.00;99.90;;;;;;4969366;28;20042;-80
2024/01/20 08:11:45;;;;;;;7.47;3.55;;;-2.90;99.90;;;;;;4984949;28;20039;-80
2024/01/20 08:14:11;;;;;;;9.07;2.80;;;-2.80;99.90;;;;;;4985874;28;20444;-81
2024/01/20 08:16:36;;;;;;;8.48;4.25;;;-2.90;99.90;;;;;;5001731;28;20038;-81
2024/01/20 08:19:02;;;;;;;10.10;5.07;;;-3.00;99.90;;;;;;4987173;28;20048;-82
2024/01/20 08:21:28;;;;;;;14.82;5.55;;;-2.70;99.90;;;;;;4957863;28;20393;-80
2024/01/20 08:23:54;;;;;;;11.18;5.65;;;-2.70;99.90;;;;;;4981636;28;20026;-81
2024/01/20 08:26:20;;;;;;;14.00;7.18;;;-2.50;99.90;;;;;;4968807;28;20045;-81
2024/01/20 08:28:48;;;;;;;7.95;4.20;;;-2.50;99.90;;;;;;4968232;28;20425;-80
2024/01/20 08:31:14;;;;;;;12.43;6.63;;;-2.40;99.90;;;;;;4982109;28;20030;-81
2024/01/20 08:33:42;;;;;;;12.20;6.10;;;-2.30;99.90;;;;;;4972466;28;20034;-82
2024/01/20 08:36:07;;;;;;;12.73;6.55;;;-2.30;99.90;;;;;;4972636;28;20498;-81
2024/01/20 08:38:33;;;;;;;16.35;7.88;;;-2.30;99.90;;;;;;4939051;28;20153;-80
2024/01/20 08:40:58;;;;;;;15.27;6.72;;;-2.20;99.90;;;;;;4935845;28;20031;-81
2024/01/20 08:43:24;;;;;;;7.72;3.88;;;-2.20;99.90;;;;;;4967608;28;20033;-80
2024/01/20 08:45:52;;;;;;;10.77;4.70;;;-2.10;99.90;;;;;;4972202;28;20064;-80
2024/01/20 08:48:18;;;;;;;14.00;5.95;;;-2.00;99.90;;;;;;4947008;28;20034;-81
2024/01/20 08:50:43;;;;;;;10.10;5.60;;;-2.10;99.90;;;;;;4945478;28;20031;-81
2024/01/20 08:53:09;;;;;;;12.02;6.75;;;-2.00;99.90;;;;;;4982389;28;20038;-82
2024/01/20 08:55:34;;;;;;;13.55;6.55;;;-1.90;99.90;;;;;;4958129;28;20034;-81
2024/01/20 08:58:01;;;;;;;7.38;4.65;;;-1.90;99.90;;;;;;4972508;28;20027;-81
2024/01/20 09:00:30;;;;;;;12.77;6.18;;;-1.70;99.90;;;;;;4962799;28;20502;-82
2024/01/20 09:02:56;;;;;;;9.25;4.88;;;-1.60;99.90;;;;;;4938380;28;20030;-82
2024/01/20 09:05:21;;;;;;;11.27;5.80;;;-1.60;99.90;;;;;;4963500;28;20084;-81
2024/01/20 09:07:50;;;;;;;5.57;2.80;;;-1.50;99.90;;;;;;5006459;28;20513;-80
2024/01/20 09:10:15;;;;;;;8.85;5.03;;;-1.40;99.90;;;;;;4988477;28;20046;-81
2024/01/20 09:12:41;;;;;;;5.63;3.13;;;-1.40;99.90;;;;;;4979615;28;20403;-81
2024/01/20 09:15:07;;;;;;;7.68;4.05;;;-1.20;99.90;;;;;;4930707;28;20113;-81
2024/01/20 09:17:32;;;;;;;9.60;3.00;;;-1.00;99.90;;;;;;4991568;28;20088;-81
2024/01/20 09:19:58;;;;;;;6.93;3.42;;;-0.80;99.90;;;;;;4984056;28;20035;-81
2024/01/20 09:22:23;;;;;;;9.25;5.22;;;-0.70;99.90;;;;;;4971008;28;20502;-81
2024/01/20 09:24:49;;;;;;;16.50;4.07;;;-0.70;99.90;;;;;;4969268;28;20065;-81
2024/01/20 09:27:16;;;;;;;6.43;2.65;;;-0.70;99.90;;;;;;4954254;28;20379;-81
2024/01/20 09:29:42;;;;;;;10.40;4.22;;;-0.60;99.90;;;;;;4975756;28;20490;-81
2024/01/20 09:32:08;;;;;;;12.77;4.60;;;-0.50;99.90;;;;;;4981060;28;20044;-81
2024/01/20 09:34:33;;;;;;;8.25;4.70;;;-0.30;99.90;;;;;;4965038;28;20606;-81
2024/01/20 09:36:59;;;;;;;6.75;4.10;;;-0.20;99.90;;;;;;4992535;28;20031;-81
2024/01/20 09:39:25;;;;;;;12.57;4.35;;;-0.10;99.90;;;;;;4992880;28;20118;-82
2024/01/20 09:41:50;;;;;;;9.63;3.50;;;-0.20;99.90;;;;;;4993061;28;20069;-81
2024/01/20 09:44:16;;;;;;;11.15;5.00;;;-0.10;99.90;;;;;;4977635;28;20040;-81
2024/01/20 09:46:43;;;;;;;9.30;5.00;;;0.00;99.90;;;;;;4995554;28;20033;-82
2024/01/20 09:49:08;;;;;;;10.27;3.95;;;0.20;99.90;;;;;;4987269;28;20576;-81
2024/01/20 09:51:35;;;;;;;14.45;6.03;;;0.40;99.90;;;;;;4972945;28;20031;-81
2024/01/20 09:54:00;;;;;;;6.97;2.30;;;0.40;99.90;;;;;;4944038;28;20065;-82
2024/01/20 09:56:27;;;;;;;7.15;4.25;;;0.40;99.90;;;;;;4973629;28;20065;-82
2024/01/20 09:58:57;;;;;;;6.05;3.35;;;0.60;99.90;;;;;;4990973;28;20035;-82
2024/01/20 10:01:24;;;;;;;4.90;2.42;;;0.80;99.90;;;;;;4992247;28;20029;-81
2024/01/20 10:03:50;;;;;;;8.43;4.55;;;1.00;99.90;;;;;;4962829;28;20514;-82
2024/01/20 10:06:16;;;;;;;6.00;2.92;;;1.00;99.90;;;;;;4952134;28;20050;-81
2024/01/20 10:08:41;;;;;;;5.68;2.70;;;1.20;99.90;;;;;;4993208;28;20045;-81
2024/01/20 10:11:07;;;;;;;6.28;3.30;;;1.30;99.90;;;;;;4974251;28;20096;-81
2024/01/20 10:13:32;;;;;;;8.35;3.10;;;1.50;99.90;;;;;;4991471;28;20042;-82
2024/01/20 10:15:58;;;;;;;5.03;2.65;;;1.60;99.90;;;;;;4973303;28;20811;-82
2024/01/20 10:18:23;;;;;;;7.32;3.35;;;1.60;99.90;;;;;;4986106;28;20038;-82
2024/01/20 10:20:49;;;;;;;10.52;4.70;;;1.50;99.90;;;;;;4961378;28;20117;-81
2024/01/20 10:23:14;;;;;;;10.32;3.60;;;1.50;99.90;;;;;;4957373;28;20038;-81
2024/01/20 10:25:40;;;;;;;9.25;4.13;;;1.50;99.90;;;;;;4972846;28;20026;-81
2024/01/20 10:28:07;;;;;;;8.43;4.32;;;1.70;99.90;;;;;;4986354;28;20030;-81
2024/01/20 10:30:36;;;;;;;4.25;2.35;;;1.70;99.90;;;;;;5003445;28;20478;-81
2024/01/20 10:33:02;;;;;;;9.13;5.78;;;1.90;99.90;;;;;;4974675;28;20145;-81
2024/01/20 10:35:27;;;;;;;9.07;4.90;;;1.90;99.90;;;;;;4988393;28;20053;-81
2024/01/20 10:37:53;;;;;;;8.95;4.40;;;1.90;99.90;;;;;;4962064;28;20059;-81
2024/01/20 10:40:19;;;;;;;5.75;3.22;;;1.90;99.90;;;;;;4985354;28;20121;-80
2024/01/20 10:42:54;;;;;;;6.15;3.72;;;2.10;99.90;;;;;;4972321;28;20041;-81
2024/01/20 10:45:20;;;;;;;9.02;3.75;;;2.40;99.90;;;;;;4987125;28;20042;-80
2024/01/20 10:47:54;;;;;;;14.25;3.35;;;2.50;99.90;;;;;;4974105;28;20514;-80
2024/01/20 10:50:20;;;;;;;3.88;2.58;;;2.70;99.90;;;;;;5006489;28;20089;-81
2024/01/20 10:52:45;;;;;;;5.03;3.00;;;2.80;99.90;;;;;;4971800;28;20031;-81
2024/01/20 10:55:11;;;;;;;6.05;2.72;;;2.70;99.90;;;;;;4990471;28;20041;-81
2024/01/20 10:57:37;;;;;;;4.82;2.08;;;2.80;99.90;;;;;;4970712;28;20037;-80
2024/01/20 11:00:04;;;;;;;5.70;2.53;;;3.00;99.90;;;;;;4970155;28;20019;-81
2024/01/20 11:02:30;;;;;;;6.28;3.53;;;3.00;99.90;;;;;;4969025;28;20049;-80
2024/01/20 11:04:55;;;;;;;8.02;3.60;;;3.00;99.90;;;;;;4971802;28;20038;-81
2024/01/20 11:07:26;;;;;;;4.93;2.65;;;3.10;99.90;;;;;;4969244;28;20038;-81
2024/01/20 11:09:58;;;;;;;3.60;2.22;;;3.10;99.90;;;;;;4983793;28;20045;-82
2024/01/20 11:12:27;;;;;;;6.07;2.60;;;3.20;99.90;;;;;;4970138;28;20253;-81
2024/01/20 11:14:54;;;;;;;8.98;2.85;;;3.20;99.90;;;;;;4968536;28;20034;-81
2024/01/20 11:17:20;;;;;;;5.88;2.72;;;3.30;99.90;;;;;;4968959;28;20526;-81
2024/01/20 11:19:46;;;;;;;5.38;1.90;;;3.40;99.90;;;;;;4969333;28;20066;-81
2024/01/20 11:22:34;;;;;;;6.13;3.13;;;3.60;99.90;;;;;;4949928;28;20121;-81
2024/01/20 11:25:04;;;;;;;7.60;3.40;;;3.60;99.90;;;;;;4967834;28;20062;-81
2024/01/20 11:27:30;;;;;;;8.57;3.10;;;3.60;99.90;;;;;;4985566;28;20035;-81
2024/01/20 11:30:08;;;;;;;3.45;1.90;;;3.70;99.90;;;;;;4973180;28;20060;-81
2024/01/20 11:32:33;;;;;;;5.93;3.95;;;3.70;99.90;;;;;;4986303;28;20034;-81
2024/01/20 11:35:00;;;;;;;6.30;2.17;;;3.70;99.90;;;;;;4969419;28;21845;-81
2024/01/20 11:37:26;;;;;;;3.47;2.17;;;3.90;99.90;;;;;;4986847;28;20117;-80
2024/01/20 11:40:03;;;;;;;6.60;2.83;;;4.00;99.90;;;;;;5001429;28;20042;-82
2024/01/20 11:42:29;;;;;;;7.32;2.88;;;3.90;99.90;;;;;;4991286;28;20513;-81
2024/01/20 11:44:55;;;;;;;5.10;2.17;;;4.10;99.90;;;;;;4982598;28;20474;-81
2024/01/20 11:47:20;;;;;;;7.28;3.15;;;3.90;99.90;;;;;;4969796;28;20030;-81
2024/01/20 11:49:46;;;;;;;8.82;3.70;;;4.20;99.90;;;;;;4969735;28;20042;-81
2024/01/20 11:52:12;;;;;;;4.50;2.67;;;4.20;99.90;;;;;;4974262;28;20121;-83
2024/01/20 11:54:37;;;;;;;4.65;3.20;;;4.30;99.90;;;;;;4970809;28;20092;-83
2024/01/20 11:57:04;;;;;;;8.30;3.33;;;4.40;99.90;;;;;;4988316;28;20030;-83
2024/01/20 11:59:29;;;;;;;3.40;1.98;;;4.20;99.90;;;;;;4986922;28;20034;-84
2024/01/20 12:01:56;;;;;;;6.55;3.00;;;4.50;99.90;;;;;;4971553;28;20083;-84
2024/01/20 12:04:21;;;;;;;2.92;1.75;;;4.60;99.90;;;;;;4972139;28;20397;-83
2024/01/20 12:06:47;;;;;;;5.28;2.40;;;4.90;99.90;;;;;;4954941;28;20026;-83
2024/01/20 12:09:12;;;;;;;6.68;2.50;;;4.80;99.90;;;;;;4974046;28;20038;-83
2024/01/20 12:11:39;;;;;;;6.32;3.00;;;4.60;99.90;;;;;;4987469;28;20706;-83
2024/01/20 12:14:07;;;;;;;4.03;2.15;;;4.90;99.90;;;;;;4970870;28;20065;-84
2024/01/20 12:16:34;;;;;;;7.43;2.78;;;4.70;99.90;;;;;;4984683;28;20413;-83
2024/01/20 12:19:00;;;;;;;7.50;4.30;;;5.10;99.90;;;;;;4959522;28;20714;-83
2024/01/20 12:21:27;;;;;;;3.10;1.85;;;5.10;99.90;;;;;;4970836;28;20038;-82
2024/01/20 12:23:53;;;;;;;2.70;1.52;;;5.30;99.90;;;;;;4971851;28;20673;-82
2024/01/20 12:26:18;;;;;;;5.20;2.70;;;5.50;99.90;;;;;;4987761;28;20042;-82
2024/01/20 12:28:46;;;;;;;2.95;2.03;;;5.40;99.90;;;;;;4944602;28;20049;-83
2024/01/20 12:31:12;;;;;;;2.67;2.00;;;5.30;99.90;;;;;;4972544;28;20039;-82
2024/01/20 12:33:38;;;;;;;6.43;2.90;;;5.50;99.90;;;;;;4983471;28;20387;-84
2024/01/20 12:36:03;;;;;;;4.88;2.50;;;5.20;99.90;;;;;;4968510;28;20058;-82